createdAt,value
2016-06-06T08:40:12.636Z,56
2016-06-06T08:41:12.639Z,52
2016-06-06T08:42:12.627Z,60
2016-06-06T08:43:12.645Z,52
2016-06-06T08:44:12.835Z,52
2016-06-06T08:45:12.525Z,52
2016-06-06T08:46:12.668Z,52
2016-06-06T08:47:12.686Z,52
2016-06-06T08:48:12.549Z,40
2016-06-06T08:49:12.724Z,48
2016-06-06T08:50:12.710Z,52
2016-06-06T08:51:12.744Z,52
2016-06-06T08:52:12.732Z,36
2016-06-06T08:53:12.749Z,32
2016-06-06T08:54:12.752Z,32
2016-06-06T08:55:12.771Z,32
2016-06-06T08:56:12.773Z,52
2016-06-06T08:57:12.792Z,52
2016-06-06T08:58:12.794Z,52
2016-06-06T08:59:12.829Z,56
2016-06-06T09:00:13.159Z,56
2016-06-06T09:01:12.834Z,56
2016-06-06T09:02:12.837Z,60
2016-06-06T09:03:12.886Z,56
2016-06-06T09:04:12.857Z,40
2016-06-06T09:05:12.876Z,36
2016-06-06T09:06:12.878Z,36
2016-06-06T09:07:12.897Z,60
2016-06-06T09:08:12.899Z,60
2016-06-06T09:09:12.918Z,48
2016-06-06T09:10:12.936Z,60
2016-06-06T09:11:12.939Z,56
2016-06-06T09:12:12.942Z,64
2016-06-06T09:13:12.960Z,64
2016-06-06T09:14:13.009Z,68
2016-06-06T09:15:12.965Z,60
2016-06-06T09:16:12.983Z,44
2016-06-06T09:17:12.986Z,36
2016-06-06T09:18:12.864Z,44
2016-06-06T09:19:13.038Z,36
2016-06-06T09:20:13.041Z,56
2016-06-06T09:21:13.044Z,56
2016-06-06T09:22:13.046Z,40
2016-06-06T09:23:13.049Z,40
2016-06-06T09:24:13.068Z,44
2016-06-06T09:25:13.070Z,32
2016-06-06T09:26:13.088Z,44
2016-06-06T09:27:13.091Z,52
2016-06-06T09:28:13.110Z,56
2016-06-06T09:29:13.878Z,52
2016-06-06T09:30:12.974Z,52
2016-06-06T09:31:13.133Z,56
2016-06-06T09:32:13.136Z,56
2016-06-06T09:33:13.154Z,52
2016-06-06T09:34:13.157Z,56
2016-06-06T09:35:13.160Z,56
2016-06-06T09:36:13.193Z,56
2016-06-06T09:37:13.196Z,52
2016-06-06T09:38:13.214Z,56
2016-06-06T09:39:13.217Z,52
2016-06-06T09:40:13.220Z,52
2016-06-06T09:41:13.223Z,56
2016-06-06T09:42:13.241Z,56
2016-06-06T09:43:13.259Z,56
2016-06-06T09:44:14.277Z,52
2016-06-06T09:45:13.109Z,52
2016-06-06T09:46:13.127Z,56
2016-06-06T09:47:13.302Z,56
2016-06-06T09:48:13.304Z,56
2016-06-06T09:49:13.150Z,28
2016-06-06T09:50:13.324Z,28
2016-06-06T09:51:13.343Z,32
2016-06-06T09:52:13.346Z,52
2016-06-06T09:53:13.349Z,56
2016-06-06T09:54:13.367Z,56
2016-06-06T09:55:13.401Z,52
2016-06-06T09:56:13.388Z,56
2016-06-06T09:57:13.407Z,52
2016-06-06T09:58:13.409Z,36
2016-06-06T09:59:13.474Z,40
2016-06-06T10:00:13.430Z,56
2016-06-06T10:01:13.433Z,52
2016-06-06T10:02:13.279Z,52
2016-06-06T10:03:13.501Z,52
2016-06-06T10:04:13.456Z,44
2016-06-06T10:05:13.475Z,48
2016-06-06T10:06:13.478Z,48
2016-06-06T10:07:13.512Z,52
2016-06-06T10:08:13.514Z,48
2016-06-06T10:09:13.517Z,48
2016-06-06T10:10:13.519Z,48
2016-06-06T10:11:13.523Z,48
2016-06-06T10:12:13.228Z,48
2016-06-06T10:13:13.558Z,48
2016-06-06T10:14:13.625Z,48
2016-06-06T10:15:13.423Z,52
2016-06-06T10:16:13.583Z,52
2016-06-06T10:17:13.600Z,48
2016-06-06T10:18:13.447Z,48
2016-06-06T10:19:13.638Z,48
2016-06-06T10:20:13.625Z,52
2016-06-06T10:21:13.658Z,48
2016-06-06T10:22:13.646Z,52
2016-06-06T10:23:13.664Z,52
2016-06-06T10:24:13.682Z,52
2016-06-06T10:25:13.685Z,56
2016-06-06T10:26:13.688Z,56
2016-06-06T10:27:13.690Z,60
2016-06-06T10:28:13.723Z,56
2016-06-06T10:29:14.477Z,52
2016-06-06T10:30:13.901Z,52
2016-06-06T10:31:13.732Z,52
2016-06-06T10:32:13.750Z,52
2016-06-06T10:33:13.596Z,52
2016-06-06T10:34:13.771Z,52
2016-06-06T10:35:13.774Z,52
2016-06-06T10:36:13.792Z,52
2016-06-06T10:37:13.795Z,52
2016-06-06T10:38:13.813Z,56
2016-06-06T10:39:13.817Z,56
2016-06-06T10:40:13.834Z,56
2016-06-06T10:41:13.837Z,56
2016-06-06T10:42:13.855Z,56
2016-06-06T10:43:13.858Z,56
2016-06-06T10:44:13.736Z,60
2016-06-06T10:45:13.739Z,56
2016-06-06T10:46:13.897Z,56
2016-06-06T10:47:13.900Z,52
2016-06-06T10:48:13.919Z,48
2016-06-06T10:49:13.921Z,52
2016-06-06T10:50:13.939Z,52
2016-06-06T10:51:13.942Z,52
2016-06-06T10:52:14.258Z,52
2016-06-06T10:53:13.963Z,52
2016-06-06T10:54:13.982Z,52
2016-06-06T10:55:13.985Z,52
2016-06-06T10:56:14.002Z,48
2016-06-06T10:57:13.849Z,52
2016-06-06T10:58:14.023Z,52
2016-06-06T10:59:14.041Z,52
2016-06-06T11:00:14.341Z,52
2016-06-06T11:01:14.063Z,52
2016-06-06T11:02:14.065Z,56
2016-06-06T11:03:14.068Z,56
2016-06-06T11:04:14.087Z,56
2016-06-06T11:05:14.090Z,56
2016-06-06T11:06:14.108Z,56
2016-06-06T11:07:14.110Z,56
2016-06-06T11:08:14.128Z,56
2016-06-06T11:09:14.490Z,52
2016-06-06T11:10:14.493Z,52
2016-06-06T11:11:14.168Z,48
2016-06-06T11:12:14.170Z,52
2016-06-06T11:13:14.376Z,52
2016-06-06T11:14:14.911Z,52
2016-06-06T11:15:14.116Z,52
2016-06-06T11:16:14.212Z,52
2016-06-06T11:17:14.324Z,48
2016-06-06T11:18:14.297Z,48
2016-06-06T11:19:14.252Z,52
2016-06-06T11:20:14.255Z,48
2016-06-06T11:21:14.539Z,48
2016-06-06T11:22:14.275Z,48
2016-06-06T11:23:14.466Z,48
2016-06-06T11:24:14.297Z,52
2016-06-06T11:25:14.565Z,48
2016-06-06T11:26:14.677Z,48
2016-06-06T11:27:14.336Z,52
2016-06-06T11:28:14.807Z,48
2016-06-06T11:29:15.122Z,48
2016-06-06T11:30:14.985Z,48
2016-06-06T11:31:14.377Z,48
2016-06-06T11:32:14.537Z,48
2016-06-06T11:33:14.399Z,48
2016-06-06T11:34:14.417Z,48
2016-06-06T11:35:14.467Z,52
2016-06-06T11:36:14.626Z,52
2016-06-06T11:37:14.457Z,52
2016-06-06T11:38:14.521Z,52
2016-06-06T11:39:14.493Z,48
2016-06-06T11:40:14.480Z,52
2016-06-06T11:41:14.545Z,48
2016-06-06T11:42:14.501Z,48
2016-06-06T11:43:14.614Z,48
2016-06-06T11:44:14.428Z,48
2016-06-06T11:45:15.056Z,48
2016-06-06T11:46:14.543Z,52
2016-06-06T11:47:14.608Z,52
2016-06-06T11:48:14.564Z,52
2016-06-06T11:49:14.411Z,48
2016-06-06T11:50:14.586Z,48
2016-06-06T11:51:14.588Z,48
2016-06-06T11:52:14.606Z,48
2016-06-06T11:53:14.719Z,48
2016-06-06T11:54:14.986Z,48
2016-06-06T11:55:14.630Z,48
2016-06-06T11:56:14.649Z,48
2016-06-06T11:57:14.682Z,48
2016-06-06T11:58:14.747Z,48
2016-06-06T11:59:14.546Z,48
2016-06-06T12:00:15.363Z,48
2016-06-06T12:01:14.552Z,48
2016-06-06T12:02:14.851Z,48
2016-06-06T12:03:14.730Z,48
2016-06-06T12:04:14.936Z,48
2016-06-06T12:05:14.766Z,48
2016-06-06T12:06:14.753Z,48
2016-06-06T12:07:14.882Z,48
2016-06-06T12:08:14.774Z,44
2016-06-06T12:09:14.808Z,48
2016-06-06T12:10:14.905Z,48
2016-06-06T12:11:14.829Z,48
2016-06-06T12:12:28.988Z,44
2016-06-06T12:13:14.835Z,44
2016-06-06T12:14:15.400Z,44
2016-06-06T12:15:29.012Z,48
2016-06-06T12:16:14.874Z,48
2016-06-06T12:17:15.080Z,48
2016-06-06T12:18:15.036Z,48
2016-06-06T12:19:14.757Z,48
2016-06-06T12:20:14.931Z,48
2016-06-06T12:21:29.091Z,48
2016-06-06T12:22:14.937Z,48
2016-06-06T12:23:15.064Z,48
2016-06-06T12:24:15.161Z,48
2016-06-06T12:25:15.007Z,48
2016-06-06T12:26:14.963Z,44
2016-06-06T12:27:15.200Z,48
2016-06-06T12:28:14.999Z,48
2016-06-06T12:29:15.096Z,48
2016-06-06T12:30:15.224Z,48
2016-06-06T12:31:29.196Z,48
2016-06-06T12:32:15.246Z,48
2016-06-06T12:33:15.060Z,48
2016-06-06T12:34:15.062Z,52
2016-06-06T12:35:15.191Z,52
2016-06-06T12:36:15.084Z,52
2016-06-06T12:37:15.149Z,52
2016-06-06T12:38:15.104Z,52
2016-06-06T12:39:14.951Z,48
2016-06-06T12:40:15.126Z,48
2016-06-06T12:41:15.145Z,48
2016-06-06T12:42:15.147Z,44
2016-06-06T12:43:15.166Z,44
2016-06-06T12:44:15.403Z,44
2016-06-06T12:45:15.592Z,44
2016-06-06T12:46:15.251Z,44
2016-06-06T12:47:15.207Z,44
2016-06-06T12:48:15.070Z,44
2016-06-06T12:49:15.228Z,44
2016-06-06T12:50:15.247Z,44
2016-06-06T12:51:15.265Z,44
2016-06-06T12:52:15.267Z,44
2016-06-06T12:53:15.286Z,48
2016-06-06T12:54:15.289Z,44
2016-06-06T12:55:15.308Z,48
2016-06-06T12:56:15.325Z,44
2016-06-06T12:57:15.327Z,40
2016-06-06T12:58:15.330Z,44
2016-06-06T12:59:15.193Z,44
2016-06-06T13:00:15.399Z,44
2016-06-06T13:01:15.370Z,44
2016-06-06T13:02:15.372Z,44
2016-06-06T13:03:15.391Z,48
2016-06-06T13:04:15.424Z,44
2016-06-06T13:05:15.409Z,44
2016-06-06T13:06:15.413Z,48
2016-06-06T13:07:15.430Z,44
2016-06-06T13:08:15.432Z,44
2016-06-06T13:09:15.452Z,44
2016-06-06T13:10:15.454Z,44
2016-06-06T13:11:15.473Z,40
2016-06-06T13:12:15.490Z,40
2016-06-06T13:13:15.493Z,44
2016-06-06T13:14:17.155Z,44
2016-06-06T13:15:16.017Z,44
2016-06-06T13:16:15.517Z,44
2016-06-06T13:17:15.520Z,44
2016-06-06T13:18:15.553Z,44
2016-06-06T13:19:15.556Z,44
2016-06-06T13:20:15.559Z,40
2016-06-06T13:21:15.609Z,44
2016-06-06T13:22:15.439Z,44
2016-06-06T13:23:15.614Z,40
2016-06-06T13:24:15.617Z,40
2016-06-06T13:25:15.603Z,40
2016-06-06T13:26:15.481Z,40
2016-06-06T13:27:15.641Z,40
2016-06-06T13:28:15.658Z,40
2016-06-06T13:29:15.833Z,40
2016-06-06T13:30:15.711Z,40
2016-06-06T13:31:15.697Z,40
2016-06-06T13:32:15.685Z,40
2016-06-06T13:33:15.563Z,40
2016-06-06T13:34:15.705Z,40
2016-06-06T13:35:15.755Z,44
2016-06-06T13:36:15.743Z,40
2016-06-06T13:37:15.761Z,40
2016-06-06T13:38:15.763Z,44
2016-06-06T13:39:15.766Z,40
2016-06-06T13:40:15.644Z,40
2016-06-06T13:41:15.631Z,40
2016-06-06T13:42:15.837Z,40
2016-06-06T13:43:15.823Z,40
2016-06-06T13:44:15.843Z,40
2016-06-06T13:45:15.705Z,44
2016-06-06T13:46:15.832Z,44
2016-06-06T13:47:15.850Z,44
2016-06-06T13:48:15.869Z,40
2016-06-06T13:49:15.871Z,40
2016-06-06T13:50:15.889Z,40
2016-06-06T13:51:15.892Z,40
2016-06-06T13:52:15.942Z,40
2016-06-06T13:53:15.929Z,40
2016-06-06T13:54:15.931Z,40
2016-06-06T13:55:15.934Z,40
2016-06-06T13:56:15.953Z,40
2016-06-06T13:57:15.814Z,40
2016-06-06T13:58:15.974Z,36
2016-06-06T13:59:16.647Z,40
2016-06-06T14:00:15.869Z,40
2016-06-06T14:01:16.075Z,40
2016-06-06T14:02:16.031Z,40
2016-06-06T14:03:16.019Z,40
2016-06-06T14:04:16.052Z,40
2016-06-06T14:05:16.055Z,40
2016-06-06T14:06:16.058Z,36
2016-06-06T14:07:16.061Z,36
2016-06-06T14:08:16.079Z,36
2016-06-06T14:09:15.957Z,36
2016-06-06T14:10:16.099Z,36
2016-06-06T14:11:16.118Z,36
2016-06-06T14:12:15.980Z,36
2016-06-06T14:13:16.140Z,40
2016-06-06T14:14:16.157Z,40
2016-06-06T14:15:16.941Z,40
2016-06-06T14:16:16.163Z,40
2016-06-06T14:17:16.182Z,36
2016-06-06T14:18:16.199Z,36
2016-06-06T14:19:16.045Z,36
2016-06-06T14:20:16.204Z,36
2016-06-06T14:21:16.223Z,36
2016-06-06T14:22:16.241Z,36
2016-06-06T14:23:16.087Z,36
2016-06-06T14:24:16.247Z,32
2016-06-06T14:25:16.265Z,32
2016-06-06T14:26:16.284Z,32
2016-06-06T14:27:16.270Z,36
2016-06-06T14:28:16.132Z,36
2016-06-06T14:29:17.167Z,36
2016-06-06T14:30:16.919Z,36
2016-06-06T14:31:16.343Z,36
2016-06-06T14:32:16.347Z,36
2016-06-06T14:33:16.349Z,32
2016-06-06T14:34:16.352Z,32
2016-06-06T14:35:16.354Z,32
2016-06-06T14:36:16.372Z,32
2016-06-06T14:37:16.422Z,32
2016-06-06T14:38:16.394Z,32
2016-06-06T14:39:16.412Z,32
2016-06-06T14:40:16.416Z,32
2016-06-06T14:41:16.449Z,32
2016-06-06T14:42:16.451Z,32
2016-06-06T14:43:16.454Z,32
2016-06-06T14:44:16.848Z,32
2016-06-06T14:45:16.788Z,32
2016-06-06T14:46:16.478Z,32
2016-06-06T14:47:16.496Z,32
2016-06-06T14:48:16.498Z,32
2016-06-06T14:49:16.518Z,28
2016-06-06T14:50:16.535Z,28
2016-06-06T14:51:16.537Z,28
2016-06-06T14:52:16.556Z,28
2016-06-06T14:53:16.559Z,28
2016-06-06T14:54:16.561Z,32
2016-06-06T14:55:16.580Z,32
2016-06-06T14:56:16.598Z,32
2016-06-06T14:57:16.601Z,32
2016-06-06T14:58:16.619Z,28
2016-06-06T14:59:16.482Z,28
2016-06-06T15:00:16.969Z,28
2016-06-06T15:01:16.644Z,28
2016-06-06T15:02:16.661Z,28
2016-06-06T15:03:16.524Z,28
2016-06-06T15:04:16.527Z,28
2016-06-06T15:05:16.700Z,28
2016-06-06T15:06:16.703Z,28
2016-06-06T15:07:16.706Z,24
2016-06-06T15:08:16.568Z,28
2016-06-06T15:09:16.728Z,28
2016-06-06T15:10:16.746Z,28
2016-06-06T15:11:16.591Z,28
2016-06-06T15:12:16.610Z,28
2016-06-06T15:13:16.769Z,28
2016-06-06T15:14:16.631Z,24
2016-06-06T15:15:16.931Z,24
2016-06-06T15:16:16.652Z,24
2016-06-06T15:17:16.826Z,24
2016-06-06T15:18:16.829Z,24
2016-06-06T15:19:16.848Z,24
2016-06-06T15:20:16.851Z,24
2016-06-06T15:21:16.869Z,24
2016-06-06T15:22:16.871Z,28
2016-06-06T15:23:16.890Z,28
2016-06-06T15:24:16.893Z,24
2016-06-06T15:25:16.912Z,24
2016-06-06T15:26:16.757Z,24
2016-06-06T15:27:16.775Z,24
2016-06-06T15:28:16.950Z,24
2016-06-06T15:29:32.143Z,24
2016-06-06T15:30:16.956Z,24
2016-06-06T15:31:16.975Z,24
2016-06-06T15:32:16.992Z,24
2016-06-06T15:33:17.011Z,24
2016-06-06T15:34:17.013Z,24
2016-06-06T15:35:17.017Z,20
2016-06-06T15:36:17.034Z,20
2016-06-06T15:37:17.037Z,24
2016-06-06T15:38:17.055Z,24
2016-06-06T15:39:17.058Z,24
2016-06-06T15:40:17.061Z,24
2016-06-06T15:41:17.079Z,20
2016-06-06T15:42:17.082Z,20
2016-06-06T15:43:17.099Z,20
2016-06-06T15:44:17.134Z,24
2016-06-06T15:45:18.090Z,20
2016-06-06T15:46:17.124Z,20
2016-06-06T15:47:17.143Z,20
2016-06-06T15:48:17.160Z,20
2016-06-06T15:49:17.179Z,20
2016-06-06T15:50:17.197Z,20
2016-06-06T15:51:17.185Z,20
2016-06-06T15:52:17.046Z,20
2016-06-06T15:53:17.205Z,16
2016-06-06T15:54:17.239Z,20
2016-06-06T15:55:17.226Z,20
2016-06-06T15:56:17.245Z,16
2016-06-06T15:57:17.106Z,16
2016-06-06T15:58:17.281Z,16
2016-06-06T15:59:17.268Z,16
2016-06-06T16:00:17.381Z,12
2016-06-06T16:01:17.305Z,12
2016-06-06T16:02:17.323Z,12
2016-06-06T16:03:17.311Z,12
2016-06-06T16:04:17.344Z,12
2016-06-06T16:05:17.191Z,12
2016-06-06T16:06:17.365Z,12
2016-06-06T16:07:17.367Z,12
2016-06-06T16:08:17.402Z,12
2016-06-06T16:09:17.373Z,12
2016-06-06T16:10:17.392Z,12
2016-06-06T16:11:17.425Z,12
2016-06-06T16:12:17.413Z,12
2016-06-06T16:13:17.431Z,12
2016-06-06T16:14:17.450Z,8
2016-06-06T16:15:17.452Z,8
2016-06-06T16:16:17.471Z,8
2016-06-06T16:17:17.316Z,12
2016-06-06T16:18:17.476Z,12
2016-06-06T16:19:17.494Z,12
2016-06-06T16:20:17.497Z,8
2016-06-06T16:21:17.499Z,8
2016-06-06T16:22:17.518Z,8
2016-06-06T16:23:17.224Z,8
2016-06-06T16:24:17.538Z,8
2016-06-06T16:25:17.557Z,8
2016-06-06T16:26:17.576Z,8
2016-06-06T16:27:17.562Z,8
2016-06-06T16:28:17.596Z,8
2016-06-06T16:29:17.443Z,8
2016-06-06T16:30:18.179Z,8
2016-06-06T16:31:17.620Z,8
2016-06-06T16:32:17.623Z,12
2016-06-06T16:33:17.656Z,12
2016-06-06T16:34:17.644Z,12
2016-06-06T16:35:17.662Z,12
2016-06-06T16:36:17.665Z,12
2016-06-06T16:37:17.683Z,12
2016-06-06T16:38:17.686Z,12
2016-06-06T16:39:17.704Z,12
2016-06-06T16:40:17.722Z,8
2016-06-06T16:41:17.725Z,12
2016-06-06T16:42:17.587Z,12
2016-06-06T16:43:17.594Z,12
2016-06-06T16:44:17.602Z,12
2016-06-06T16:45:17.500Z,12
2016-06-06T16:46:17.789Z,12
2016-06-06T16:47:17.813Z,12
2016-06-06T16:48:17.818Z,12
2016-06-06T16:49:17.853Z,12
2016-06-06T16:50:17.841Z,12
2016-06-06T16:51:17.861Z,12
2016-06-06T16:52:17.881Z,12
2016-06-06T16:53:17.885Z,12
2016-06-06T16:54:17.903Z,12
2016-06-06T16:55:17.907Z,12
2016-06-06T16:56:17.926Z,12
2016-06-06T16:57:17.930Z,12
2016-06-06T16:58:17.933Z,12
2016-06-06T16:59:17.951Z,12
2016-06-06T17:00:17.830Z,12
2016-06-06T17:01:17.973Z,12
2016-06-06T17:02:17.992Z,12
2016-06-06T17:03:17.995Z,12
2016-06-06T17:04:17.997Z,12
2016-06-06T17:05:18.016Z,12
2016-06-06T17:06:18.018Z,12
2016-06-06T17:07:18.037Z,12
2016-06-06T17:08:18.055Z,16
2016-06-06T17:09:18.058Z,16
2016-06-06T17:10:18.061Z,12
2016-06-06T17:11:18.094Z,12
2016-06-06T17:12:18.097Z,12
2016-06-06T17:13:18.100Z,12
2016-06-06T17:14:18.102Z,12
2016-06-06T17:15:18.449Z,12
2016-06-06T17:16:18.124Z,12
2016-06-06T17:17:18.141Z,8
2016-06-06T17:18:18.160Z,12
2016-06-06T17:19:18.163Z,12
2016-06-06T17:20:18.196Z,12
2016-06-06T17:21:18.184Z,8
2016-06-06T17:22:18.202Z,8
2016-06-06T17:23:18.205Z,8
2016-06-06T17:24:18.223Z,12
2016-06-06T17:25:18.241Z,12
2016-06-06T17:26:18.243Z,12
2016-06-06T17:27:18.262Z,12
2016-06-06T17:28:18.109Z,12
2016-06-06T17:29:18.283Z,12
2016-06-06T17:30:18.396Z,12
2016-06-06T17:31:18.304Z,12
2016-06-06T17:32:18.322Z,12
2016-06-06T17:33:18.326Z,12
2016-06-06T17:34:18.344Z,12
2016-06-06T17:35:18.346Z,12
2016-06-06T17:36:18.364Z,12
2016-06-06T17:37:18.367Z,12
2016-06-06T17:38:18.385Z,12
2016-06-06T17:39:18.404Z,12
2016-06-06T17:40:18.406Z,12
2016-06-06T17:41:18.268Z,12
2016-06-06T17:42:18.428Z,12
2016-06-06T17:43:18.430Z,12
2016-06-06T17:44:18.449Z,12
2016-06-06T17:45:18.607Z,12
2016-06-06T17:46:18.470Z,12
2016-06-06T17:47:18.488Z,12
2016-06-06T17:48:18.506Z,12
2016-06-06T17:49:18.510Z,12
2016-06-06T17:50:18.527Z,12
2016-06-06T17:51:18.545Z,12
2016-06-06T17:52:18.548Z,12
2016-06-06T17:53:18.551Z,12
2016-06-06T17:54:18.569Z,12
2016-06-06T17:55:18.571Z,12
2016-06-06T17:56:18.590Z,12
2016-06-06T17:57:18.609Z,8
2016-06-06T17:58:18.642Z,8
2016-06-06T17:59:18.629Z,8
2016-06-06T18:00:18.335Z,8
2016-06-06T18:01:18.495Z,8
2016-06-06T18:02:18.669Z,8
2016-06-06T18:03:18.656Z,8
2016-06-06T18:04:18.675Z,8
2016-06-06T18:05:18.677Z,8
2016-06-06T18:06:18.711Z,8
2016-06-06T18:07:18.729Z,8
2016-06-06T18:08:18.731Z,8
2016-06-06T18:09:18.734Z,8
2016-06-06T18:10:18.737Z,8
2016-06-06T18:11:18.755Z,8
2016-06-06T18:12:18.774Z,8
2016-06-06T18:13:18.792Z,8
2016-06-06T18:14:18.795Z,8
2016-06-06T18:15:19.438Z,8
2016-06-06T18:16:18.816Z,8
2016-06-06T18:17:18.819Z,8
2016-06-06T18:18:18.852Z,8
2016-06-06T18:19:18.855Z,8
2016-06-06T18:20:18.874Z,8
2016-06-06T18:21:18.877Z,8
2016-06-06T18:22:18.894Z,8
2016-06-06T18:23:18.913Z,8
2016-06-06T18:24:18.915Z,8
2016-06-06T18:25:18.919Z,8
2016-06-06T18:26:18.920Z,4
2016-06-06T18:27:18.939Z,4
2016-06-06T18:28:18.957Z,4
2016-06-06T18:29:18.976Z,4
2016-06-06T18:30:19.040Z,4
2016-06-06T18:31:18.998Z,4
2016-06-06T18:32:19.000Z,4
2016-06-06T18:33:18.861Z,4
2016-06-06T18:34:19.020Z,4
2016-06-06T18:35:19.039Z,4
2016-06-06T18:36:19.057Z,4
2016-06-06T18:37:19.059Z,4
2016-06-06T18:38:19.078Z,8
2016-06-06T18:39:18.925Z,4
2016-06-06T18:40:19.099Z,4
2016-06-06T18:41:19.117Z,4
2016-06-06T18:42:19.136Z,4
2016-06-06T18:43:19.122Z,4
2016-06-06T18:44:18.986Z,4
2016-06-06T18:45:20.488Z,4
2016-06-06T18:46:19.163Z,4
2016-06-06T18:47:19.180Z,0
2016-06-06T18:48:19.199Z,0
2016-06-06T18:49:19.202Z,0
2016-06-06T18:50:19.204Z,0
2016-06-06T18:51:19.222Z,0
2016-06-06T18:52:19.225Z,0
2016-06-06T18:53:19.088Z,4
2016-06-06T18:54:19.246Z,4
2016-06-06T18:55:19.264Z,4
2016-06-06T18:56:19.283Z,4
2016-06-06T18:57:19.285Z,4
2016-06-06T18:58:19.304Z,4
2016-06-06T18:59:19.307Z,4
2016-06-06T19:00:19.340Z,0
2016-06-06T19:01:19.342Z,0
2016-06-06T19:02:19.345Z,0
2016-06-06T19:03:19.364Z,0
2016-06-06T19:04:19.367Z,0
2016-06-06T19:05:19.384Z,0
2016-06-06T19:06:19.387Z,0
2016-06-06T19:07:19.406Z,0
2016-06-06T19:08:19.409Z,0
2016-06-06T19:09:19.270Z,0
2016-06-06T19:10:19.445Z,0
2016-06-06T19:11:19.464Z,0
2016-06-06T19:12:19.483Z,0
2016-06-06T19:13:19.485Z,0
2016-06-06T19:14:19.472Z,0
2016-06-06T19:15:19.505Z,0
2016-06-06T19:16:19.744Z,0
2016-06-06T19:17:19.777Z,0
2016-06-06T19:18:19.530Z,0
2016-06-06T19:19:19.532Z,0
2016-06-06T19:20:19.550Z,0
2016-06-06T19:21:19.553Z,0
2016-06-06T19:22:19.572Z,0
2016-06-06T19:23:19.574Z,0
2016-06-06T19:24:19.593Z,0
2016-06-06T19:25:19.610Z,0
2016-06-06T19:26:19.613Z,0
2016-06-06T19:27:19.632Z,0
2016-06-06T19:28:19.650Z,0
2016-06-06T19:29:19.637Z,0
2016-06-06T19:30:19.702Z,0
2016-06-06T19:31:19.674Z,0
2016-06-06T19:32:19.676Z,0
2016-06-06T19:33:19.695Z,0
2016-06-06T19:34:19.713Z,0
2016-06-06T19:35:20.372Z,0
2016-06-06T19:36:19.734Z,0
2016-06-06T19:37:19.737Z,0
2016-06-06T19:38:19.756Z,0
2016-06-06T19:39:19.773Z,0
2016-06-06T19:40:19.636Z,0
2016-06-06T19:41:19.639Z,0
2016-06-06T19:42:19.797Z,0
2016-06-06T19:43:19.816Z,0
2016-06-06T19:44:19.819Z,0
2016-06-06T19:45:19.680Z,0
2016-06-06T19:46:19.839Z,0
2016-06-06T19:47:19.858Z,0
2016-06-06T19:48:20.188Z,0
2016-06-06T19:49:20.394Z,0
2016-06-06T19:50:19.880Z,0
2016-06-06T19:51:19.758Z,0
2016-06-06T19:52:19.902Z,0
2016-06-06T19:53:19.921Z,0
2016-06-06T19:54:19.938Z,0
2016-06-06T19:55:19.941Z,0
2016-06-06T19:56:19.960Z,0
2016-06-06T19:57:19.963Z,0
2016-06-06T19:58:19.981Z,0
2016-06-06T19:59:19.984Z,0
2016-06-06T20:00:20.001Z,0
2016-06-06T20:01:20.035Z,0
2016-06-06T20:02:20.023Z,0
2016-06-06T20:03:20.040Z,0
2016-06-06T20:04:20.059Z,0
2016-06-06T20:05:20.063Z,0
2016-06-06T20:06:20.064Z,0
2016-06-06T20:07:20.084Z,0
2016-06-06T20:08:20.101Z,0
2016-06-06T20:09:20.104Z,0
2016-06-06T20:10:20.122Z,0
2016-06-06T20:11:20.125Z,0
2016-06-06T20:12:20.144Z,0
2016-06-06T20:13:20.146Z,0
2016-06-06T20:14:20.149Z,0
2016-06-06T20:15:20.183Z,0
2016-06-06T20:16:20.169Z,0
2016-06-06T20:17:20.188Z,0
2016-06-06T20:18:20.206Z,0
2016-06-06T20:19:20.209Z,0
2016-06-06T20:20:20.883Z,0
2016-06-06T20:21:20.247Z,0
2016-06-06T20:22:20.249Z,0
2016-06-06T20:23:20.251Z,0
2016-06-06T20:24:20.269Z,0
2016-06-06T20:25:20.288Z,0
2016-06-06T20:26:20.306Z,0
2016-06-06T20:27:20.309Z,0
2016-06-06T20:28:20.312Z,0
2016-06-06T20:29:20.330Z,0
2016-06-06T20:30:20.379Z,0
2016-06-06T20:31:20.351Z,0
2016-06-06T20:32:20.354Z,0
2016-06-06T20:33:20.372Z,0
2016-06-06T20:34:20.375Z,0
2016-06-06T20:35:20.956Z,0
2016-06-06T20:36:20.395Z,0
2016-06-06T20:37:20.414Z,0
2016-06-06T20:38:20.432Z,0
2016-06-06T20:39:20.278Z,0
2016-06-06T20:40:20.453Z,0
2016-06-06T20:41:20.472Z,0
2016-06-06T20:42:20.475Z,0
2016-06-06T20:43:20.492Z,0
2016-06-06T20:44:20.495Z,0
2016-06-06T20:45:20.357Z,0
2016-06-06T20:46:20.516Z,0
2016-06-06T20:47:20.519Z,0
2016-06-06T20:48:20.537Z,0
2016-06-06T20:49:20.539Z,0
2016-06-06T20:50:21.636Z,0
2016-06-06T20:51:20.419Z,0
2016-06-06T20:52:20.579Z,0
2016-06-06T20:53:20.597Z,0
2016-06-06T20:54:20.600Z,0
2016-06-06T20:55:20.634Z,0
2016-06-06T20:56:20.637Z,0
2016-06-06T20:57:20.640Z,0
2016-06-06T20:58:20.658Z,0
2016-06-06T20:59:20.660Z,0
2016-06-06T21:00:20.523Z,0
2016-06-06T21:01:20.682Z,0
2016-06-06T21:02:20.700Z,0
2016-06-06T21:03:20.719Z,0
2016-06-06T21:04:20.564Z,0
2016-06-06T21:05:21.020Z,0
2016-06-06T21:06:20.743Z,0
2016-06-06T21:07:20.745Z,0
2016-06-06T21:08:20.762Z,0
2016-06-06T21:09:20.765Z,0
2016-06-06T21:10:20.784Z,0
2016-06-06T21:11:20.803Z,0
2016-06-06T21:12:20.805Z,0
2016-06-06T21:13:20.823Z,0
2016-06-06T21:14:20.826Z,0
2016-06-06T21:15:20.845Z,0
2016-06-06T21:16:20.847Z,0
2016-06-06T21:17:20.881Z,0
2016-06-06T21:18:20.883Z,0
2016-06-06T21:19:20.887Z,0
2016-06-06T21:20:20.982Z,0
2016-06-06T21:21:20.907Z,0
2016-06-06T21:22:20.925Z,0
2016-06-06T21:23:20.928Z,0
2016-06-06T21:24:20.805Z,0
2016-06-06T21:25:20.949Z,0
2016-06-06T21:26:20.968Z,0
2016-06-06T21:27:20.971Z,0
2016-06-06T21:28:20.832Z,0
2016-06-06T21:29:21.007Z,0
2016-06-06T21:30:21.057Z,0
2016-06-06T21:31:21.012Z,0
2016-06-06T21:32:21.030Z,0
2016-06-06T21:33:21.064Z,0
2016-06-06T21:34:21.067Z,0
2016-06-06T21:35:21.226Z,0
2016-06-06T21:36:21.182Z,0
2016-06-06T21:37:21.090Z,0
2016-06-06T21:38:20.953Z,0
2016-06-06T21:39:21.112Z,0
2016-06-06T21:40:21.115Z,0
2016-06-06T21:41:21.133Z,0
2016-06-06T21:42:21.136Z,0
2016-06-06T21:43:21.153Z,0
2016-06-06T21:44:21.172Z,0
2016-06-06T21:45:21.190Z,0
2016-06-06T21:46:21.192Z,0
2016-06-06T21:47:21.195Z,0
2016-06-06T21:48:21.214Z,0
2016-06-06T21:49:21.217Z,0
2016-06-06T21:50:22.000Z,0
2016-06-06T21:51:21.081Z,0
2016-06-06T21:52:21.256Z,0
2016-06-06T21:53:21.275Z,0
2016-06-06T21:54:21.277Z,0
2016-06-06T21:55:21.296Z,0
2016-06-06T21:56:21.141Z,0
2016-06-06T21:57:21.301Z,0
2016-06-06T21:58:21.319Z,0
2016-06-06T21:59:21.338Z,0
2016-06-06T22:00:21.355Z,0
2016-06-06T22:01:21.358Z,0
2016-06-06T22:02:21.361Z,0
2016-06-06T22:03:21.364Z,0
2016-06-06T22:04:21.398Z,0
2016-06-06T22:05:21.119Z,0
2016-06-06T22:06:21.871Z,0
2016-06-06T22:07:21.421Z,0
2016-06-06T22:08:21.284Z,0
2016-06-06T22:09:21.443Z,0
2016-06-06T22:10:21.461Z,0
2016-06-06T22:11:21.464Z,0
2016-06-06T22:12:21.482Z,0
2016-06-06T22:13:21.485Z,0
2016-06-06T22:14:21.503Z,0
2016-06-06T22:15:21.521Z,0
2016-06-06T22:16:21.524Z,0
2016-06-06T22:17:21.526Z,0
2016-06-06T22:18:21.653Z,0
2016-06-06T22:19:21.657Z,0
2016-06-06T22:20:21.409Z,0
2016-06-06T22:21:21.584Z,0
2016-06-06T22:22:21.602Z,0
2016-06-06T22:23:21.589Z,0
2016-06-06T22:24:21.608Z,0
2016-06-06T22:25:21.627Z,0
2016-06-06T22:26:21.629Z,0
2016-06-06T22:27:21.647Z,0
2016-06-06T22:28:21.665Z,0
2016-06-06T22:29:21.668Z,0
2016-06-06T22:30:22.093Z,0
2016-06-06T22:31:21.689Z,0
2016-06-06T22:32:21.552Z,0
2016-06-06T22:33:22.023Z,0
2016-06-06T22:34:22.119Z,0
2016-06-06T22:35:21.732Z,0
2016-06-06T22:36:21.749Z,0
2016-06-06T22:37:21.768Z,0
2016-06-06T22:38:21.771Z,0
2016-06-06T22:39:21.789Z,0
2016-06-06T22:40:21.635Z,0
2016-06-06T22:41:21.810Z,0
2016-06-06T22:42:21.812Z,0
2016-06-06T22:43:21.815Z,0
2016-06-06T22:44:21.833Z,0
2016-06-06T22:45:21.851Z,0
2016-06-06T22:46:21.854Z,0
2016-06-06T22:47:21.873Z,0
2016-06-06T22:48:21.876Z,0
2016-06-06T22:49:21.894Z,0
2016-06-06T22:50:22.114Z,0
2016-06-06T22:51:21.930Z,0
2016-06-06T22:52:21.949Z,0
2016-06-06T22:53:21.936Z,0
2016-06-06T22:54:21.939Z,0
2016-06-06T22:55:21.957Z,0
2016-06-06T22:56:21.991Z,0
2016-06-06T22:57:21.993Z,0
2016-06-06T22:58:21.981Z,0
2016-06-06T22:59:21.999Z,0
2016-06-06T23:00:22.001Z,0
2016-06-06T23:01:22.035Z,0
2016-06-06T23:02:22.038Z,0
2016-06-06T23:03:22.041Z,0
2016-06-06T23:04:22.060Z,0
2016-06-06T23:05:22.749Z,0
2016-06-06T23:06:22.080Z,0
2016-06-06T23:07:22.083Z,0